Terminal Aerodrome Forecast
Issued by NWS

Home | Current Version | Previous Version | Text Only | Print | Product List | Glossary On
Versions: 1 2 3 4 5 6 7 8 9 10 11 12 13 14 15 16 17 18 19 20 21 22 23 24 25 26 27 28 29 30 31 32 33 34 35 36 37 38 39 40 41 42
000
FTUS46 KPQR 211720
TAFONP
TAF
KONP 211720Z 2118/2218 23010KT 2SM -RA BR BKN006 OVC020
     FM212100 24010KT P6SM -SHRA SCT015 BKN022 OVC050
     FM220000 25007KT P6SM VCSH BKN035 OVC050
     FM220900 VRB04KT 4SM BR OVC015=

USA.gov is the U.S. government's official web portal to all federal, state and local government web resources and services.